sensor_id;sensor_type;location;lat;lon;timestamp;P1;durP1;ratioP1;P2;durP2;ratioP2
69979;SDS011;57318;56.232;43.944;2023-05-28T00:02:06;14.38;;;10.02;;
69979;SDS011;57318;56.232;43.944;2023-05-28T00:04:31;13.70;;;9.47;;
69979;SDS011;57318;56.232;43.944;2023-05-28T00:06:57;14.75;;;9.88;;
69979;SDS011;57318;56.232;43.944;2023-05-28T00:09:23;15.00;;;9.47;;
69979;SDS011;57318;56.232;43.944;2023-05-28T00:11:49;16.38;;;10.32;;
69979;SDS011;57318;56.232;43.944;2023-05-28T00:14:15;16.07;;;9.90;;
69979;SDS011;57318;56.232;43.944;2023-05-28T00:16:41;17.13;;;9.57;;
69979;SDS011;57318;56.232;43.944;2023-05-28T00:19:08;12.50;;;9.18;;
69979;SDS011;57318;56.232;43.944;2023-05-28T00:21:34;17.77;;;10.32;;
69979;SDS011;57318;56.232;43.944;2023-05-28T00:24:00;16.90;;;9.75;;
69979;SDS011;57318;56.232;43.944;2023-05-28T00:26:26;17.07;;;10.30;;
69979;SDS011;57318;56.232;43.944;2023-05-28T00:28:52;14.10;;;9.60;;
69979;SDS011;57318;56.232;43.944;2023-05-28T00:31:18;15.70;;;9.57;;
69979;SDS011;57318;56.232;43.944;2023-05-28T00:33:44;14.87;;;10.43;;
69979;SDS011;57318;56.232;43.944;2023-05-28T00:36:10;14.73;;;9.70;;
69979;SDS011;57318;56.232;43.944;2023-05-28T00:38:37;13.80;;;9.60;;
69979;SDS011;57318;56.232;43.944;2023-05-28T00:41:03;15.88;;;10.32;;
69979;SDS011;57318;56.232;43.944;2023-05-28T00:43:29;14.13;;;9.63;;
69979;SDS011;57318;56.232;43.944;2023-05-28T00:45:56;15.67;;;10.03;;
69979;SDS011;57318;56.232;43.944;2023-05-28T00:48:29;12.55;;;9.57;;
69979;SDS011;57318;56.232;43.944;2023-05-28T00:50:56;13.68;;;9.43;;
69979;SDS011;57318;56.232;43.944;2023-05-28T00:53:23;15.15;;;9.73;;
69979;SDS011;57318;56.232;43.944;2023-05-28T00:58:15;14.93;;;8.85;;
69979;SDS011;57318;56.232;43.944;2023-05-28T01:00:44;12.77;;;8.85;;
69979;SDS011;57318;56.232;43.944;2023-05-28T01:03:14;14.90;;;8.65;;
69979;SDS011;57318;56.232;43.944;2023-05-28T01:05:39;13.43;;;8.23;;
69979;SDS011;57318;56.232;43.944;2023-05-28T01:08:06;12.37;;;9.07;;
69979;SDS011;57318;56.232;43.944;2023-05-28T01:10:33;11.63;;;8.30;;
69979;SDS011;57318;56.232;43.944;2023-05-28T01:13:00;14.63;;;8.57;;
69979;SDS011;57318;56.232;43.944;2023-05-28T01:15:29;11.02;;;7.68;;
69979;SDS011;57318;56.232;43.944;2023-05-28T01:17:59;11.77;;;8.20;;
69979;SDS011;57318;56.232;43.944;2023-05-28T01:20:27;10.95;;;8.25;;
69979;SDS011;57318;56.232;43.944;2023-05-28T01:22:54;11.82;;;8.25;;
69979;SDS011;57318;56.232;43.944;2023-05-28T01:25:25;13.88;;;8.55;;
69979;SDS011;57318;56.232;43.944;2023-05-28T01:27:52;14.48;;;7.90;;
69979;SDS011;57318;56.232;43.944;2023-05-28T01:32:44;12.48;;;7.75;;
69979;SDS011;57318;56.232;43.944;2023-05-28T01:35:10;12.13;;;8.27;;
69979;SDS011;57318;56.232;43.944;2023-05-28T01:37:38;9.90;;;8.20;;
69979;SDS011;57318;56.232;43.944;2023-05-28T01:40:07;12.27;;;8.23;;
69979;SDS011;57318;56.232;43.944;2023-05-28T01:42:34;14.32;;;8.23;;
69979;SDS011;57318;56.232;43.944;2023-05-28T01:47:28;12.60;;;8.73;;
69979;SDS011;57318;56.232;43.944;2023-05-28T01:49:55;13.25;;;7.93;;
69979;SDS011;57318;56.232;43.944;2023-05-28T01:52:21;13.57;;;8.23;;
69979;SDS011;57318;56.232;43.944;2023-05-28T01:54:47;12.35;;;7.80;;
69979;SDS011;57318;56.232;43.944;2023-05-28T01:57:12;11.57;;;7.83;;
69979;SDS011;57318;56.232;43.944;2023-05-28T01:59:38;11.00;;;8.07;;
69979;SDS011;57318;56.232;43.944;2023-05-28T02:02:04;10.30;;;7.83;;
69979;SDS011;57318;56.232;43.944;2023-05-28T02:04:31;11.82;;;8.00;;
69979;SDS011;57318;56.232;43.944;2023-05-28T02:06:56;12.13;;;8.20;;
69979;SDS011;57318;56.232;43.944;2023-05-28T02:11:48;12.85;;;7.88;;
69979;SDS011;57318;56.232;43.944;2023-05-28T02:14:15;10.48;;;7.50;;
69979;SDS011;57318;56.232;43.944;2023-05-28T02:16:41;10.77;;;7.45;;
69979;SDS011;57318;56.232;43.944;2023-05-28T02:19:09;11.35;;;7.47;;
69979;SDS011;57318;56.232;43.944;2023-05-28T02:21:37;14.30;;;7.68;;
69979;SDS011;57318;56.232;43.944;2023-05-28T02:24:03;11.10;;;7.17;;
69979;SDS011;57318;56.232;43.944;2023-05-28T02:26:29;14.23;;;7.80;;
69979;SDS011;57318;56.232;43.944;2023-05-28T02:28:54;9.80;;;7.53;;
69979;SDS011;57318;56.232;43.944;2023-05-28T02:31:20;12.53;;;8.17;;
69979;SDS011;57318;56.232;43.944;2023-05-28T02:33:46;12.07;;;7.90;;
69979;SDS011;57318;56.232;43.944;2023-05-28T02:36:12;11.10;;;7.73;;
69979;SDS011;57318;56.232;43.944;2023-05-28T02:41:05;12.40;;;7.45;;
69979;SDS011;57318;56.232;43.944;2023-05-28T02:43:31;13.30;;;7.25;;
69979;SDS011;57318;56.232;43.944;2023-05-28T02:45:57;11.80;;;7.30;;
69979;SDS011;57318;56.232;43.944;2023-05-28T02:48:23;9.40;;;7.63;;
69979;SDS011;57318;56.232;43.944;2023-05-28T02:50:48;11.67;;;7.33;;
69979;SDS011;57318;56.232;43.944;2023-05-28T02:53:14;13.20;;;7.43;;
69979;SDS011;57318;56.232;43.944;2023-05-28T02:55:40;12.03;;;7.63;;
69979;SDS011;57318;56.232;43.944;2023-05-28T02:58:05;9.97;;;7.03;;
69979;SDS011;57318;56.232;43.944;2023-05-28T03:00:31;10.37;;;7.67;;
69979;SDS011;57318;56.232;43.944;2023-05-28T03:02:58;13.48;;;7.38;;
69979;SDS011;57318;56.232;43.944;2023-05-28T03:05:24;12.57;;;7.60;;
69979;SDS011;57318;56.232;43.944;2023-05-28T03:07:50;11.67;;;7.77;;
69979;SDS011;57318;56.232;43.944;2023-05-28T03:10:15;11.47;;;7.37;;
69979;SDS011;57318;56.232;43.944;2023-05-28T03:12:41;10.53;;;7.07;;
69979;SDS011;57318;56.232;43.944;2023-05-28T03:15:07;12.37;;;7.00;;
69979;SDS011;57318;56.232;43.944;2023-05-28T03:17:33;11.73;;;6.90;;
69979;SDS011;57318;56.232;43.944;2023-05-28T03:19:58;10.63;;;6.90;;
69979;SDS011;57318;56.232;43.944;2023-05-28T03:22:24;11.17;;;7.40;;
69979;SDS011;57318;56.232;43.944;2023-05-28T03:24:52;10.82;;;7.05;;
69979;SDS011;57318;56.232;43.944;2023-05-28T03:27:18;12.00;;;7.32;;
69979;SDS011;57318;56.232;43.944;2023-05-28T03:29:43;9.73;;;7.10;;
69979;SDS011;57318;56.232;43.944;2023-05-28T03:32:09;15.70;;;7.87;;
69979;SDS011;57318;56.232;43.944;2023-05-28T03:34:35;12.52;;;7.65;;
69979;SDS011;57318;56.232;43.944;2023-05-28T03:37:01;27.73;;;18.30;;
69979;SDS011;57318;56.232;43.944;2023-05-28T03:39:28;34.47;;;22.67;;
69979;SDS011;57318;56.232;43.944;2023-05-28T03:41:53;22.10;;;15.30;;
69979;SDS011;57318;56.232;43.944;2023-05-28T03:44:19;16.97;;;11.93;;
69979;SDS011;57318;56.232;43.944;2023-05-28T03:46:45;29.05;;;19.35;;
69979;SDS011;57318;56.232;43.944;2023-05-28T03:49:11;28.63;;;18.57;;
69979;SDS011;57318;56.232;43.944;2023-05-28T03:51:37;29.57;;;18.13;;
69979;SDS011;57318;56.232;43.944;2023-05-28T03:54:02;21.47;;;12.83;;
69979;SDS011;57318;56.232;43.944;2023-05-28T03:56:28;24.75;;;14.73;;
69979;SDS011;57318;56.232;43.944;2023-05-28T03:58:55;25.52;;;16.45;;
69979;SDS011;57318;56.232;43.944;2023-05-28T04:01:20;33.23;;;19.93;;
69979;SDS011;57318;56.232;43.944;2023-05-28T04:03:46;32.63;;;19.37;;
69979;SDS011;57318;56.232;43.944;2023-05-28T04:06:12;20.53;;;11.97;;
69979;SDS011;57318;56.232;43.944;2023-05-28T04:08:38;18.23;;;11.00;;
69979;SDS011;57318;56.232;43.944;2023-05-28T04:11:03;17.13;;;10.53;;
69979;SDS011;57318;56.232;43.944;2023-05-28T04:13:29;16.23;;;9.23;;
69979;SDS011;57318;56.232;43.944;2023-05-28T04:15:55;13.40;;;7.77;;
69979;SDS011;57318;56.232;43.944;2023-05-28T04:18:21;13.73;;;7.63;;
69979;SDS011;57318;56.232;43.944;2023-05-28T04:20:47;13.52;;;7.97;;
69979;SDS011;57318;56.232;43.944;2023-05-28T04:23:13;12.07;;;7.85;;
69979;SDS011;57318;56.232;43.944;2023-05-28T04:25:39;11.93;;;8.10;;
69979;SDS011;57318;56.232;43.944;2023-05-28T04:28:04;16.75;;;9.00;;
69979;SDS011;57318;56.232;43.944;2023-05-28T04:30:30;11.60;;;7.63;;
69979;SDS011;57318;56.232;43.944;2023-05-28T04:32:56;12.10;;;7.73;;
69979;SDS011;57318;56.232;43.944;2023-05-28T04:35:22;11.32;;;7.32;;
69979;SDS011;57318;56.232;43.944;2023-05-28T04:37:48;11.67;;;7.43;;
69979;SDS011;57318;56.232;43.944;2023-05-28T04:40:16;13.75;;;6.75;;
69979;SDS011;57318;56.232;43.944;2023-05-28T04:42:42;7.82;;;5.35;;
69979;SDS011;57318;56.232;43.944;2023-05-28T04:45:08;9.30;;;5.77;;
69979;SDS011;57318;56.232;43.944;2023-05-28T04:47:38;8.50;;;5.45;;
69979;SDS011;57318;56.232;43.944;2023-05-28T04:50:04;7.35;;;4.75;;
69979;SDS011;57318;56.232;43.944;2023-05-28T04:52:32;8.48;;;5.30;;
69979;SDS011;57318;56.232;43.944;2023-05-28T04:55:04;7.75;;;5.55;;
69979;SDS011;57318;56.232;43.944;2023-05-28T04:57:31;11.85;;;5.55;;
69979;SDS011;57318;56.232;43.944;2023-05-28T05:02:23;7.50;;;5.45;;
69979;SDS011;57318;56.232;43.944;2023-05-28T05:04:51;10.10;;;5.88;;
69979;SDS011;57318;56.232;43.944;2023-05-28T05:07:17;10.75;;;6.18;;
69979;SDS011;57318;56.232;43.944;2023-05-28T05:09:43;10.37;;;6.20;;
69979;SDS011;57318;56.232;43.944;2023-05-28T05:12:08;9.93;;;5.47;;
69979;SDS011;57318;56.232;43.944;2023-05-28T05:14:35;7.88;;;5.53;;
69979;SDS011;57318;56.232;43.944;2023-05-28T05:17:01;8.47;;;6.20;;
69979;SDS011;57318;56.232;43.944;2023-05-28T05:19:28;9.35;;;5.78;;
69979;SDS011;57318;56.232;43.944;2023-05-28T05:21:53;13.97;;;6.40;;
69979;SDS011;57318;56.232;43.944;2023-05-28T05:24:19;9.60;;;6.20;;
69979;SDS011;57318;56.232;43.944;2023-05-28T05:26:46;8.75;;;6.38;;
69979;SDS011;57318;56.232;43.944;2023-05-28T05:29:12;10.07;;;6.35;;
69979;SDS011;57318;56.232;43.944;2023-05-28T05:31:37;9.43;;;6.93;;
69979;SDS011;57318;56.232;43.944;2023-05-28T05:34:03;8.53;;;6.00;;
69979;SDS011;57318;56.232;43.944;2023-05-28T05:36:29;11.45;;;7.22;;
69979;SDS011;57318;56.232;43.944;2023-05-28T05:38:56;12.93;;;7.50;;
69979;SDS011;57318;56.232;43.944;2023-05-28T05:41:21;12.83;;;8.10;;
69979;SDS011;57318;56.232;43.944;2023-05-28T05:43:47;11.27;;;7.00;;
69979;SDS011;57318;56.232;43.944;2023-05-28T05:46:13;11.30;;;7.20;;
69979;SDS011;57318;56.232;43.944;2023-05-28T05:48:39;9.90;;;6.67;;
69979;SDS011;57318;56.232;43.944;2023-05-28T05:51:05;11.37;;;7.33;;
69979;SDS011;57318;56.232;43.944;2023-05-28T05:53:31;11.95;;;7.18;;
69979;SDS011;57318;56.232;43.944;2023-05-28T05:55:57;13.90;;;7.73;;
69979;SDS011;57318;56.232;43.944;2023-05-28T05:58:23;11.50;;;7.85;;
69979;SDS011;57318;56.232;43.944;2023-05-28T06:00:48;10.53;;;7.37;;
69979;SDS011;57318;56.232;43.944;2023-05-28T06:03:17;12.38;;;7.75;;
69979;SDS011;57318;56.232;43.944;2023-05-28T06:05:42;13.90;;;8.37;;
69979;SDS011;57318;56.232;43.944;2023-05-28T06:08:11;11.17;;;7.87;;
69979;SDS011;57318;56.232;43.944;2023-05-28T06:10:36;14.32;;;8.88;;
69979;SDS011;57318;56.232;43.944;2023-05-28T06:13:02;12.10;;;8.27;;
69979;SDS011;57318;56.232;43.944;2023-05-28T06:17:54;13.27;;;7.75;;
69979;SDS011;57318;56.232;43.944;2023-05-28T06:22:46;9.52;;;6.60;;
69979;SDS011;57318;56.232;43.944;2023-05-28T06:25:12;10.27;;;6.50;;
69979;SDS011;57318;56.232;43.944;2023-05-28T06:27:39;9.73;;;6.93;;
69979;SDS011;57318;56.232;43.944;2023-05-28T06:30:06;8.25;;;6.38;;
69979;SDS011;57318;56.232;43.944;2023-05-28T06:32:33;8.50;;;6.43;;
69979;SDS011;57318;56.232;43.944;2023-05-28T06:35:00;8.45;;;5.70;;
69979;SDS011;57318;56.232;43.944;2023-05-28T06:37:25;8.60;;;6.13;;
69979;SDS011;57318;56.232;43.944;2023-05-28T06:39:51;10.33;;;6.47;;
69979;SDS011;57318;56.232;43.944;2023-05-28T06:42:17;11.97;;;7.10;;
69979;SDS011;57318;56.232;43.944;2023-05-28T06:44:43;9.70;;;7.03;;
69979;SDS011;57318;56.232;43.944;2023-05-28T06:47:08;26.70;;;8.10;;
69979;SDS011;57318;56.232;43.944;2023-05-28T06:49:34;25.63;;;7.95;;
69979;SDS011;57318;56.232;43.944;2023-05-28T06:52:00;24.07;;;8.10;;
69979;SDS011;57318;56.232;43.944;2023-05-28T06:54:26;12.23;;;8.10;;
69979;SDS011;57318;56.232;43.944;2023-05-28T06:56:52;32.00;;;8.50;;
69979;SDS011;57318;56.232;43.944;2023-05-28T06:59:18;22.47;;;7.97;;
69979;SDS011;57318;56.232;43.944;2023-05-28T07:01:43;12.70;;;8.03;;
69979;SDS011;57318;56.232;43.944;2023-05-28T07:04:09;14.17;;;8.00;;
69979;SDS011;57318;56.232;43.944;2023-05-28T07:06:35;11.50;;;8.07;;
69979;SDS011;57318;56.232;43.944;2023-05-28T07:09:00;10.93;;;7.53;;
69979;SDS011;57318;56.232;43.944;2023-05-28T07:11:26;12.90;;;8.37;;
69979;SDS011;57318;56.232;43.944;2023-05-28T07:13:52;12.50;;;7.77;;
69979;SDS011;57318;56.232;43.944;2023-05-28T07:16:20;14.45;;;8.13;;
69979;SDS011;57318;56.232;43.944;2023-05-28T07:18:46;14.63;;;8.43;;
69979;SDS011;57318;56.232;43.944;2023-05-28T07:21:12;18.52;;;9.15;;
69979;SDS011;57318;56.232;43.944;2023-05-28T07:23:38;16.57;;;8.90;;
69979;SDS011;57318;56.232;43.944;2023-05-28T07:26:04;12.93;;;7.77;;
69979;SDS011;57318;56.232;43.944;2023-05-28T07:28:30;16.58;;;7.80;;
69979;SDS011;57318;56.232;43.944;2023-05-28T07:30:56;14.25;;;8.55;;
69979;SDS011;57318;56.232;43.944;2023-05-28T07:33:22;14.27;;;7.90;;
69979;SDS011;57318;56.232;43.944;2023-05-28T07:35:48;13.02;;;7.20;;
69979;SDS011;57318;56.232;43.944;2023-05-28T07:38:14;9.13;;;7.10;;
69979;SDS011;57318;56.232;43.944;2023-05-28T07:40:40;14.13;;;8.50;;
69979;SDS011;57318;56.232;43.944;2023-05-28T07:43:07;12.38;;;7.03;;
69979;SDS011;57318;56.232;43.944;2023-05-28T07:45:32;12.25;;;8.10;;
69979;SDS011;57318;56.232;43.944;2023-05-28T07:47:58;12.00;;;7.83;;
69979;SDS011;57318;56.232;43.944;2023-05-28T07:50:24;14.13;;;7.43;;
69979;SDS011;57318;56.232;43.944;2023-05-28T07:52:50;10.00;;;6.95;;
69979;SDS011;57318;56.232;43.944;2023-05-28T07:55:16;14.57;;;7.55;;
69979;SDS011;57318;56.232;43.944;2023-05-28T07:57:42;12.23;;;7.27;;
69979;SDS011;57318;56.232;43.944;2023-05-28T08:00:08;11.33;;;6.97;;
69979;SDS011;57318;56.232;43.944;2023-05-28T08:02:37;12.52;;;7.22;;
69979;SDS011;57318;56.232;43.944;2023-05-28T08:05:03;9.63;;;6.87;;
69979;SDS011;57318;56.232;43.944;2023-05-28T08:07:30;10.13;;;6.85;;
69979;SDS011;57318;56.232;43.944;2023-05-28T08:09:56;11.60;;;7.28;;
69979;SDS011;57318;56.232;43.944;2023-05-28T08:12:22;10.63;;;6.73;;
69979;SDS011;57318;56.232;43.944;2023-05-28T08:14:49;12.32;;;7.88;;
69979;SDS011;57318;56.232;43.944;2023-05-28T08:17:15;12.23;;;7.03;;
69979;SDS011;57318;56.232;43.944;2023-05-28T08:19:42;11.82;;;7.18;;
69979;SDS011;57318;56.232;43.944;2023-05-28T08:22:08;11.15;;;7.30;;
69979;SDS011;57318;56.232;43.944;2023-05-28T08:24:33;11.03;;;7.10;;
69979;SDS011;57318;56.232;43.944;2023-05-28T08:26:59;10.90;;;7.07;;
69979;SDS011;57318;56.232;43.944;2023-05-28T08:29:25;10.93;;;7.20;;
69979;SDS011;57318;56.232;43.944;2023-05-28T08:31:51;11.67;;;7.87;;
69979;SDS011;57318;56.232;43.944;2023-05-28T08:34:17;11.00;;;7.45;;
69979;SDS011;57318;56.232;43.944;2023-05-28T08:36:42;9.10;;;5.77;;
69979;SDS011;57318;56.232;43.944;2023-05-28T08:39:08;8.03;;;5.43;;
69979;SDS011;57318;56.232;43.944;2023-05-28T08:41:35;8.63;;;4.82;;
69979;SDS011;57318;56.232;43.944;2023-05-28T08:44:01;7.83;;;4.83;;
69979;SDS011;57318;56.232;43.944;2023-05-28T08:46:27;6.30;;;4.13;;
69979;SDS011;57318;56.232;43.944;2023-05-28T08:48:55;5.25;;;3.70;;
69979;SDS011;57318;56.232;43.944;2023-05-28T08:51:23;4.43;;;3.35;;
69979;SDS011;57318;56.232;43.944;2023-05-28T08:53:52;4.35;;;3.50;;
69979;SDS011;57318;56.232;43.944;2023-05-28T08:56:19;5.35;;;3.40;;
69979;SDS011;57318;56.232;43.944;2023-05-28T08:58:46;4.22;;;3.33;;
69979;SDS011;57318;56.232;43.944;2023-05-28T09:01:12;5.88;;;3.40;;
69979;SDS011;57318;56.232;43.944;2023-05-28T09:03:38;5.22;;;3.67;;
69979;SDS011;57318;56.232;43.944;2023-05-28T09:06:06;5.40;;;3.55;;
69979;SDS011;57318;56.232;43.944;2023-05-28T09:08:32;6.00;;;4.38;;
69979;SDS011;57318;56.232;43.944;2023-05-28T09:10:58;5.40;;;3.90;;
69979;SDS011;57318;56.232;43.944;2023-05-28T09:13:34;8.32;;;5.03;;
69979;SDS011;57318;56.232;43.944;2023-05-28T09:16:00;8.63;;;5.43;;
69979;SDS011;57318;56.232;43.944;2023-05-28T09:18:25;7.77;;;5.13;;
69979;SDS011;57318;56.232;43.944;2023-05-28T09:20:51;8.60;;;6.13;;
69979;SDS011;57318;56.232;43.944;2023-05-28T09:23:17;12.27;;;6.13;;
69979;SDS011;57318;56.232;43.944;2023-05-28T09:25:44;9.75;;;6.03;;
69979;SDS011;57318;56.232;43.944;2023-05-28T09:28:13;8.33;;;5.77;;
69979;SDS011;57318;56.232;43.944;2023-05-28T09:30:39;8.90;;;6.43;;
69979;SDS011;57318;56.232;43.944;2023-05-28T09:35:32;9.38;;;6.10;;
69979;SDS011;57318;56.232;43.944;2023-05-28T09:37:59;12.07;;;7.43;;
69979;SDS011;57318;56.232;43.944;2023-05-28T09:40:29;10.60;;;6.65;;
69979;SDS011;57318;56.232;43.944;2023-05-28T09:42:54;14.70;;;7.33;;
69979;SDS011;57318;56.232;43.944;2023-05-28T09:45:25;12.57;;;7.40;;
69979;SDS011;57318;56.232;43.944;2023-05-28T09:47:52;10.70;;;7.30;;
69979;SDS011;57318;56.232;43.944;2023-05-28T09:50:18;13.05;;;7.78;;
69979;SDS011;57318;56.232;43.944;2023-05-28T09:55:17;12.85;;;8.27;;
69979;SDS011;57318;56.232;43.944;2023-05-28T09:57:50;13.63;;;7.68;;
69979;SDS011;57318;56.232;43.944;2023-05-28T10:00:29;12.00;;;8.25;;
69979;SDS011;57318;56.232;43.944;2023-05-28T10:05:31;13.45;;;8.85;;
69979;SDS011;57318;56.232;43.944;2023-05-28T10:07:59;15.30;;;8.40;;
69979;SDS011;57318;56.232;43.944;2023-05-28T10:10:30;17.17;;;8.63;;
69979;SDS011;57318;56.232;43.944;2023-05-28T10:12:57;15.45;;;8.55;;
69979;SDS011;57318;56.232;43.944;2023-05-28T10:15:23;18.33;;;8.90;;
69979;SDS011;57318;56.232;43.944;2023-05-28T10:17:50;15.05;;;9.00;;
69979;SDS011;57318;56.232;43.944;2023-05-28T10:20:16;13.27;;;8.43;;
69979;SDS011;57318;56.232;43.944;2023-05-28T10:22:43;15.60;;;8.63;;
69979;SDS011;57318;56.232;43.944;2023-05-28T10:25:09;18.98;;;9.05;;
69979;SDS011;57318;56.232;43.944;2023-05-28T10:27:37;18.58;;;10.07;;
69979;SDS011;57318;56.232;43.944;2023-05-28T10:30:08;15.25;;;8.65;;
69979;SDS011;57318;56.232;43.944;2023-05-28T10:32:38;17.33;;;8.82;;
69979;SDS011;57318;56.232;43.944;2023-05-28T10:35:06;12.60;;;7.90;;
69979;SDS011;57318;56.232;43.944;2023-05-28T10:37:37;15.05;;;8.15;;
69979;SDS011;57318;56.232;43.944;2023-05-28T10:40:06;11.65;;;7.95;;
69979;SDS011;57318;56.232;43.944;2023-05-28T10:42:38;11.65;;;7.47;;
69979;SDS011;57318;56.232;43.944;2023-05-28T10:45:06;14.20;;;7.68;;
69979;SDS011;57318;56.232;43.944;2023-05-28T10:47:34;13.73;;;8.27;;
69979;SDS011;57318;56.232;43.944;2023-05-28T10:50:16;14.13;;;8.60;;
69979;SDS011;57318;56.232;43.944;2023-05-28T10:52:43;13.85;;;8.27;;
69979;SDS011;57318;56.232;43.944;2023-05-28T10:55:47;17.67;;;9.23;;
69979;SDS011;57318;56.232;43.944;2023-05-28T10:58:18;20.13;;;8.75;;
69979;SDS011;57318;56.232;43.944;2023-05-28T11:03:42;12.95;;;7.50;;
69979;SDS011;57318;56.232;43.944;2023-05-28T11:06:12;13.88;;;7.50;;
69979;SDS011;57318;56.232;43.944;2023-05-28T11:08:43;11.02;;;7.38;;
69979;SDS011;57318;56.232;43.944;2023-05-28T11:11:11;14.45;;;7.13;;
69979;SDS011;57318;56.232;43.944;2023-05-28T11:13:38;12.93;;;7.07;;
69979;SDS011;57318;56.232;43.944;2023-05-28T11:16:07;12.48;;;7.15;;
69979;SDS011;57318;56.232;43.944;2023-05-28T11:18:34;9.52;;;6.47;;
69979;SDS011;57318;56.232;43.944;2023-05-28T11:21:07;11.77;;;6.03;;
69979;SDS011;57318;56.232;43.944;2023-05-28T11:23:34;9.10;;;5.90;;
69979;SDS011;57318;56.232;43.944;2023-05-28T11:26:05;10.50;;;6.35;;
69979;SDS011;57318;56.232;43.944;2023-05-28T11:28:33;11.27;;;6.05;;
69979;SDS011;57318;56.232;43.944;2023-05-28T11:30:59;10.98;;;6.18;;
69979;SDS011;57318;56.232;43.944;2023-05-28T11:33:28;10.43;;;5.73;;
69979;SDS011;57318;56.232;43.944;2023-05-28T11:35:58;8.27;;;5.15;;
69979;SDS011;57318;56.232;43.944;2023-05-28T11:38:26;9.23;;;5.45;;
69979;SDS011;57318;56.232;43.944;2023-05-28T11:40:58;9.13;;;5.10;;
69979;SDS011;57318;56.232;43.944;2023-05-28T11:43:25;8.85;;;5.57;;
69979;SDS011;57318;56.232;43.944;2023-05-28T11:45:53;7.95;;;5.18;;
69979;SDS011;57318;56.232;43.944;2023-05-28T11:48:22;9.80;;;4.80;;
69979;SDS011;57318;56.232;43.944;2023-05-28T11:50:47;6.43;;;4.50;;
69979;SDS011;57318;56.232;43.944;2023-05-28T11:53:13;9.63;;;4.75;;
69979;SDS011;57318;56.232;43.944;2023-05-28T11:55:39;8.73;;;4.38;;
69979;SDS011;57318;56.232;43.944;2023-05-28T11:58:05;7.13;;;4.57;;
69979;SDS011;57318;56.232;43.944;2023-05-28T12:00:31;8.87;;;4.70;;
69979;SDS011;57318;56.232;43.944;2023-05-28T12:03:03;6.38;;;4.63;;
69979;SDS011;57318;56.232;43.944;2023-05-28T12:05:35;8.27;;;4.60;;
69979;SDS011;57318;56.232;43.944;2023-05-28T12:08:04;7.45;;;4.57;;
69979;SDS011;57318;56.232;43.944;2023-05-28T12:10:30;11.45;;;5.22;;
69979;SDS011;57318;56.232;43.944;2023-05-28T12:12:56;7.45;;;5.43;;
69979;SDS011;57318;56.232;43.944;2023-05-28T12:15:27;7.28;;;4.97;;
69979;SDS011;57318;56.232;43.944;2023-05-28T12:17:55;8.82;;;4.28;;
69979;SDS011;57318;56.232;43.944;2023-05-28T12:28:12;6.32;;;4.20;;
69979;SDS011;57318;56.232;43.944;2023-05-28T12:30:40;5.05;;;3.80;;
69979;SDS011;57318;56.232;43.944;2023-05-28T12:33:08;7.03;;;3.85;;
69979;SDS011;57318;56.232;43.944;2023-05-28T12:35:34;4.90;;;3.83;;
69979;SDS011;57318;56.232;43.944;2023-05-28T12:38:00;5.83;;;4.20;;
69979;SDS011;57318;56.232;43.944;2023-05-28T12:40:27;7.65;;;3.88;;
69979;SDS011;57318;56.232;43.944;2023-05-28T12:42:53;6.27;;;3.87;;
69979;SDS011;57318;56.232;43.944;2023-05-28T12:45:19;7.87;;;4.37;;
69979;SDS011;57318;56.232;43.944;2023-05-28T12:47:45;7.97;;;4.03;;
69979;SDS011;57318;56.232;43.944;2023-05-28T12:50:10;4.30;;;3.63;;
69979;SDS011;57318;56.232;43.944;2023-05-28T12:52:36;6.07;;;4.27;;
69979;SDS011;57318;56.232;43.944;2023-05-28T12:55:02;5.10;;;4.00;;
69979;SDS011;57318;56.232;43.944;2023-05-28T12:57:29;5.03;;;4.10;;
69979;SDS011;57318;56.232;43.944;2023-05-28T12:59:58;6.03;;;4.00;;
69979;SDS011;57318;56.232;43.944;2023-05-28T13:02:24;5.45;;;4.20;;
69979;SDS011;57318;56.232;43.944;2023-05-28T13:04:49;5.47;;;4.30;;
69979;SDS011;57318;56.232;43.944;2023-05-28T13:07:15;5.73;;;4.10;;
69979;SDS011;57318;56.232;43.944;2023-05-28T13:09:41;6.10;;;4.22;;
69979;SDS011;57318;56.232;43.944;2023-05-28T13:12:07;6.07;;;4.30;;
69979;SDS011;57318;56.232;43.944;2023-05-28T13:14:33;5.38;;;4.25;;
69979;SDS011;57318;56.232;43.944;2023-05-28T13:16:58;7.80;;;5.00;;
69979;SDS011;57318;56.232;43.944;2023-05-28T13:19:25;8.43;;;4.85;;
69979;SDS011;57318;56.232;43.944;2023-05-28T13:21:51;8.60;;;4.50;;
69979;SDS011;57318;56.232;43.944;2023-05-28T13:24:17;5.28;;;4.40;;
69979;SDS011;57318;56.232;43.944;2023-05-28T13:26:43;5.68;;;4.22;;
69979;SDS011;57318;56.232;43.944;2023-05-28T13:29:08;5.43;;;4.17;;
69979;SDS011;57318;56.232;43.944;2023-05-28T13:31:35;6.15;;;4.70;;
69979;SDS011;57318;56.232;43.944;2023-05-28T13:34:01;5.03;;;4.10;;
69979;SDS011;57318;56.232;43.944;2023-05-28T13:36:28;5.57;;;3.97;;
69979;SDS011;57318;56.232;43.944;2023-05-28T13:38:55;6.85;;;3.75;;
69979;SDS011;57318;56.232;43.944;2023-05-28T13:41:22;6.50;;;4.20;;
69979;SDS011;57318;56.232;43.944;2023-05-28T13:43:54;5.38;;;4.03;;
69979;SDS011;57318;56.232;43.944;2023-05-28T13:46:20;4.68;;;4.10;;
69979;SDS011;57318;56.232;43.944;2023-05-28T13:48:47;5.03;;;4.00;;
69979;SDS011;57318;56.232;43.944;2023-05-28T13:53:39;4.55;;;3.92;;
69979;SDS011;57318;56.232;43.944;2023-05-28T13:56:05;4.50;;;4.10;;
69979;SDS011;57318;56.232;43.944;2023-05-28T13:58:31;5.40;;;3.80;;
69979;SDS011;57318;56.232;43.944;2023-05-28T14:00:57;7.82;;;4.35;;
69979;SDS011;57318;56.232;43.944;2023-05-28T14:03:22;5.45;;;4.13;;
69979;SDS011;57318;56.232;43.944;2023-05-28T14:05:48;7.22;;;4.15;;
69979;SDS011;57318;56.232;43.944;2023-05-28T14:08:14;5.53;;;3.92;;
69979;SDS011;57318;56.232;43.944;2023-05-28T14:10:40;6.55;;;4.28;;
69979;SDS011;57318;56.232;43.944;2023-05-28T14:15:32;4.07;;;3.50;;
69979;SDS011;57318;56.232;43.944;2023-05-28T14:17:58;6.25;;;4.07;;
69979;SDS011;57318;56.232;43.944;2023-05-28T14:20:24;5.68;;;4.10;;
69979;SDS011;57318;56.232;43.944;2023-05-28T14:22:51;4.97;;;4.20;;
69979;SDS011;57318;56.232;43.944;2023-05-28T14:25:17;5.60;;;4.30;;
69979;SDS011;57318;56.232;43.944;2023-05-28T14:27:43;7.10;;;4.00;;
69979;SDS011;57318;56.232;43.944;2023-05-28T14:30:10;6.75;;;4.20;;
69979;SDS011;57318;56.232;43.944;2023-05-28T14:35:02;4.97;;;3.75;;
69979;SDS011;57318;56.232;43.944;2023-05-28T14:37:31;6.07;;;4.60;;
69979;SDS011;57318;56.232;43.944;2023-05-28T14:39:57;5.80;;;3.97;;
69979;SDS011;57318;56.232;43.944;2023-05-28T14:42:22;5.13;;;4.50;;
69979;SDS011;57318;56.232;43.944;2023-05-28T14:44:48;5.53;;;4.63;;
69979;SDS011;57318;56.232;43.944;2023-05-28T14:47:16;6.47;;;4.22;;
69979;SDS011;57318;56.232;43.944;2023-05-28T14:49:42;6.55;;;4.70;;
69979;SDS011;57318;56.232;43.944;2023-05-28T14:52:24;5.70;;;4.88;;
69979;SDS011;57318;56.232;43.944;2023-05-28T14:54:52;8.30;;;4.55;;
69979;SDS011;57318;56.232;43.944;2023-05-28T14:57:22;5.90;;;3.85;;
69979;SDS011;57318;56.232;43.944;2023-05-28T14:59:49;9.27;;;4.65;;
69979;SDS011;57318;56.232;43.944;2023-05-28T15:02:15;5.55;;;4.13;;
69979;SDS011;57318;56.232;43.944;2023-05-28T15:07:07;6.50;;;3.90;;
69979;SDS011;57318;56.232;43.944;2023-05-28T15:09:35;4.40;;;3.35;;
69979;SDS011;57318;56.232;43.944;2023-05-28T15:12:02;5.28;;;3.80;;